Time;durP1;ratioP1;P1;durP2;ratioP2;P2;SDS_P1;SDS_P2;PMS_P1;PMS_P2;Temp;Humidity;BMP_temperature;BMP_pressure;BME280_temperature;BME280_humidity;BME280_pressure;Samples;Min_cycle;Max_cycle;Signal;HPM_P1;HPM_P2
2022/11/28 00:01:15;;;;;;;13.38;10.13;;;;;;;;;;5126337;27;20039;-62
2022/11/28 00:03:42;;;;;;;15.43;10.57;;;;;;;;;;5107497;28;20115;-63
2022/11/28 00:06:08;;;;;;;14.43;10.13;;;;;;;;;;5107202;27;20536;-62
2022/11/28 00:08:35;;;;;;;13.85;10.98;;;;;;;;;;5108653;27;20031;-63
2022/11/28 00:11:05;;;;;;;15.23;11.55;;;;;;;;;;5117362;27;20122;-63
2022/11/28 00:13:31;;;;;;;17.83;11.35;;;;;;;;;;5109987;27;20427;-62
2022/11/28 00:15:58;;;;;;;14.23;10.23;;;;;;;;;;5123270;27;20042;-63
2022/11/28 00:18:24;;;;;;;15.88;11.23;;;;;;;;;;5120296;27;20043;-62
2022/11/28 00:20:51;;;;;;;16.30;11.10;;;;;;;;;;5117264;27;20507;-62
2022/11/28 00:23:17;;;;;;;13.73;10.32;;;;;;;;;;5111800;27;20061;-62
2022/11/28 00:25:43;;;;;;;15.05;10.68;;;;;;;;;;5127110;27;20042;-62
2022/11/28 00:28:09;;;;;;;17.92;12.00;;;;;;;;;;5119104;27;20027;-63
2022/11/28 00:30:36;;;;;;;14.68;10.90;;;;;;;;;;5117646;27;20032;-62
2022/11/28 00:33:02;;;;;;;14.98;11.45;;;;;;;;;;5129538;27;20041;-63
2022/11/28 00:35:28;;;;;;;14.05;11.32;;;;;;;;;;5129067;27;20039;-63
2022/11/28 00:37:55;;;;;;;18.20;11.20;;;;;;;;;;5118875;27;20047;-63
2022/11/28 00:40:21;;;;;;;19.15;12.27;;;;;;;;;;5122506;27;20042;-62
2022/11/28 00:42:47;;;;;;;14.65;11.32;;;;;;;;;;5123262;27;20122;-62
2022/11/28 00:45:13;;;;;;;18.20;11.23;;;;;;;;;;5116366;27;20035;-63
2022/11/28 00:47:39;;;;;;;16.48;11.27;;;;;;;;;;5119390;27;20439;-62
2022/11/28 00:50:06;;;;;;;15.02;12.00;;;;;;;;;;5118437;27;20039;-62
2022/11/28 00:52:32;;;;;;;15.75;11.30;;;;;;;;;;5099890;27;20543;-63
2022/11/28 00:54:58;;;;;;;14.80;11.05;;;;;;;;;;5111548;27;20035;-63
2022/11/28 00:57:25;;;;;;;13.48;10.00;;;;;;;;;;5115512;27;20042;-62
2022/11/28 00:59:51;;;;;;;13.25;10.60;;;;;;;;;;5126907;27;20096;-63
2022/11/28 01:02:17;;;;;;;18.55;11.73;;;;;;;;;;5105608;28;20126;-62
2022/11/28 01:04:43;;;;;;;16.58;11.65;;;;;;;;;;5101883;27;20042;-63
2022/11/28 01:07:09;;;;;;;15.07;11.13;;;;;;;;;;5122222;27;20047;-63
2022/11/28 01:09:36;;;;;;;14.88;10.60;;;;;;;;;;5119706;27;20450;-62
2022/11/28 01:12:02;;;;;;;15.82;10.82;;;;;;;;;;5124638;27;20031;-63
2022/11/28 01:14:29;;;;;;;17.23;12.23;;;;;;;;;;5123404;27;20046;-62
2022/11/28 01:16:55;;;;;;;18.15;10.70;;;;;;;;;;5108566;27;20169;-63
2022/11/28 01:19:21;;;;;;;16.48;10.77;;;;;;;;;;5121575;27;20036;-63
2022/11/28 01:21:47;;;;;;;15.95;11.80;;;;;;;;;;5105746;27;20043;-63
2022/11/28 01:24:14;;;;;;;14.15;10.65;;;;;;;;;;5119876;27;20048;-63
2022/11/28 01:26:40;;;;;;;15.75;11.63;;;;;;;;;;5126589;27;20035;-63
2022/11/28 01:29:07;;;;;;;17.67;11.15;;;;;;;;;;5126602;27;20042;-62
2022/11/28 01:31:33;;;;;;;15.38;11.70;;;;;;;;;;5106036;27;20051;-63
2022/11/28 01:33:59;;;;;;;17.35;11.30;;;;;;;;;;5120174;27;20122;-63
2022/11/28 01:36:26;;;;;;;14.80;11.82;;;;;;;;;;5107355;28;20138;-63
2022/11/28 01:38:52;;;;;;;14.15;11.38;;;;;;;;;;5122486;27;20035;-62
2022/11/28 01:41:24;;;;;;;17.95;13.25;;;;;;;;;;5108379;28;20638;-63
2022/11/28 01:43:57;;;;;;;16.15;11.38;;;;;;;;;;5121821;27;20064;-63
2022/11/28 01:46:23;;;;;;;17.90;11.25;;;;;;;;;;5124966;27;20476;-62
2022/11/28 01:48:50;;;;;;;16.33;11.02;;;;;;;;;;5118391;27;20043;-62
2022/11/28 01:51:16;;;;;;;15.57;12.73;;;;;;;;;;5126376;27;20031;-63
2022/11/28 01:53:44;;;;;;;14.70;10.55;;;;;;;;;;5124906;27;20362;-62
2022/11/28 01:56:24;;;;;;;15.40;11.68;;;;;;;;;;5121316;27;20035;-63
2022/11/28 01:58:53;;;;;;;18.92;12.25;;;;;;;;;;5115941;27;20076;-63
2022/11/28 02:01:20;;;;;;;18.75;11.70;;;;;;;;;;5120008;27;20051;-62
2022/11/28 02:03:47;;;;;;;15.60;11.23;;;;;;;;;;5122600;27;20032;-62
2022/11/28 02:06:15;;;;;;;15.73;12.20;;;;;;;;;;5124376;27;20380;-62
2022/11/28 02:08:41;;;;;;;15.63;13.82;;;;;;;;;;5109726;27;20039;-62
2022/11/28 02:11:08;;;;;;;17.17;12.18;;;;;;;;;;5109197;27;20043;-62
2022/11/28 02:13:52;;;;;;;19.13;12.93;;;;;;;;;;5123016;27;20484;-63
2022/11/28 02:16:37;;;;;;;16.80;13.43;;;;;;;;;;5115737;27;20292;-62
2022/11/28 02:19:13;;;;;;;16.30;12.25;;;;;;;;;;5114922;27;20047;-62
2022/11/28 02:21:54;;;;;;;18.10;14.07;;;;;;;;;;5111023;27;20028;-63
2022/11/28 02:24:23;;;;;;;15.02;12.50;;;;;;;;;;5127785;27;20051;-63
2022/11/28 02:26:50;;;;;;;18.50;12.93;;;;;;;;;;5124593;27;20046;-62
2022/11/28 02:29:33;;;;;;;15.23;12.30;;;;;;;;;;5123223;27;20031;-62
2022/11/28 02:32:18;;;;;;;15.82;12.43;;;;;;;;;;5108108;28;20042;-63
2022/11/28 02:34:54;;;;;;;19.30;14.40;;;;;;;;;;5117026;28;20384;-62
2022/11/28 02:37:34;;;;;;;16.40;12.88;;;;;;;;;;5126062;28;20046;-63
2022/11/28 02:40:00;;;;;;;13.57;11.82;;;;;;;;;;5129155;28;20070;-62
2022/11/28 02:42:30;;;;;;;18.95;12.90;;;;;;;;;;5119082;28;20043;-62
2022/11/28 02:45:04;;;;;;;17.17;12.82;;;;;;;;;;5123165;28;20039;-62
2022/11/28 02:47:32;;;;;;;17.38;12.95;;;;;;;;;;5122976;28;20039;-62
2022/11/28 02:49:58;;;;;;;19.55;14.32;;;;;;;;;;5108215;28;20050;-62
2022/11/28 02:52:28;;;;;;;18.35;14.60;;;;;;;;;;5126207;28;20035;-62
2022/11/28 02:54:55;;;;;;;17.52;13.18;;;;;;;;;;5121713;27;20074;-62
2022/11/28 02:57:21;;;;;;;18.35;13.15;;;;;;;;;;5103611;27;20043;-62
2022/11/28 02:59:49;;;;;;;16.50;12.70;;;;;;;;;;5114287;27;20042;-62
2022/11/28 03:02:29;;;;;;;17.25;14.07;;;;;;;;;;5130511;27;20054;-61
2022/11/28 03:05:02;;;;;;;18.05;12.88;;;;;;;;;;5128274;27;20043;-62
2022/11/28 03:07:31;;;;;;;17.02;14.13;;;;;;;;;;5111682;27;20048;-62
2022/11/28 03:10:20;;;;;;;18.67;15.25;;;;;;;;;;5119314;27;20039;-63
2022/11/28 03:12:53;;;;;;;15.00;12.70;;;;;;;;;;5109548;27;20047;-62
2022/11/28 03:15:25;;;;;;;15.93;13.48;;;;;;;;;;5107246;27;20400;-62
2022/11/28 03:17:59;;;;;;;16.05;13.10;;;;;;;;;;5128013;27;20326;-62
2022/11/28 03:20:42;;;;;;;21.80;14.52;;;;;;;;;;5113221;27;20058;-62
2022/11/28 03:23:16;;;;;;;20.85;15.35;;;;;;;;;;5131338;27;20065;-62
2022/11/28 03:25:59;;;;;;;18.55;15.50;;;;;;;;;;5121427;27;20062;-63
2022/11/28 03:28:28;;;;;;;16.88;14.40;;;;;;;;;;5125778;27;20047;-62
2022/11/28 03:31:03;;;;;;;17.45;14.10;;;;;;;;;;5122669;27;20122;-62
2022/11/28 03:33:32;;;;;;;22.45;15.63;;;;;;;;;;5117513;27;20420;-62
2022/11/28 03:36:02;;;;;;;19.38;15.60;;;;;;;;;;5127292;27;20035;-62
2022/11/28 03:38:31;;;;;;;17.85;14.43;;;;;;;;;;5106065;27;20043;-62
2022/11/28 03:41:01;;;;;;;19.05;15.30;;;;;;;;;;5110548;27;20050;-62
2022/11/28 03:43:32;;;;;;;18.08;15.07;;;;;;;;;;5126887;27;20443;-62
2022/11/28 03:46:01;;;;;;;18.08;15.13;;;;;;;;;;5122354;27;20046;-62
2022/11/28 03:48:30;;;;;;;20.95;13.93;;;;;;;;;;5130228;27;20046;-62
2022/11/28 03:51:03;;;;;;;19.40;15.20;;;;;;;;;;5129491;27;20050;-64
2022/11/28 03:53:58;;;;;;;19.48;15.15;;;;;;;;;;5122864;27;20039;-63
2022/11/28 03:56:30;;;;;;;15.27;13.30;;;;;;;;;;5072818;27;20045;-62
2022/11/28 03:58:59;;;;;;;17.35;14.13;;;;;;;;;;5121939;27;20267;-62
2022/11/28 04:01:25;;;;;;;19.70;13.93;;;;;;;;;;5109098;27;20115;-62
2022/11/28 04:03:54;;;;;;;20.25;14.50;;;;;;;;;;5129464;27;20399;-62
2022/11/28 04:06:27;;;;;;;19.73;14.88;;;;;;;;;;5130123;27;20039;-62
2022/11/28 04:09:06;;;;;;;16.95;13.38;;;;;;;;;;5118664;27;20045;-62
2022/11/28 04:11:46;;;;;;;20.08;14.55;;;;;;;;;;5118109;27;20040;-63
2022/11/28 04:14:18;;;;;;;20.45;14.15;;;;;;;;;;5127220;27;20042;-62
2022/11/28 04:16:55;;;;;;;17.85;14.15;;;;;;;;;;5110412;27;20039;-63
2022/11/28 04:19:29;;;;;;;18.08;13.85;;;;;;;;;;5108906;28;20040;-62
2022/11/28 04:22:01;;;;;;;15.27;13.35;;;;;;;;;;5128372;27;20051;-62
2022/11/28 04:24:40;;;;;;;18.92;14.48;;;;;;;;;;5107201;27;20054;-63
2022/11/28 04:27:12;;;;;;;19.45;14.35;;;;;;;;;;5127685;27;20112;-63
2022/11/28 04:29:41;;;;;;;16.20;13.80;;;;;;;;;;5127637;27;20039;-63
2022/11/28 04:32:09;;;;;;;16.92;14.02;;;;;;;;;;5118765;27;20043;-62
2022/11/28 04:34:35;;;;;;;14.27;11.93;;;;;;;;;;5125636;27;20043;-62
2022/11/28 04:37:03;;;;;;;17.42;13.88;;;;;;;;;;5120309;27;20103;-62
2022/11/28 04:39:31;;;;;;;17.05;12.38;;;;;;;;;;5123238;27;20569;-62
2022/11/28 04:42:13;;;;;;;16.88;13.43;;;;;;;;;;5087748;27;20038;-63
2022/11/28 04:44:55;;;;;;;16.13;12.68;;;;;;;;;;5125592;27;20043;-62
2022/11/28 04:47:22;;;;;;;16.50;13.77;;;;;;;;;;5127663;27;20035;-62
2022/11/28 04:49:48;;;;;;;14.85;12.88;;;;;;;;;;5106166;27;20288;-62
2022/11/28 04:52:19;;;;;;;15.68;12.88;;;;;;;;;;5127359;27;20031;-63
2022/11/28 04:54:48;;;;;;;16.55;12.85;;;;;;;;;;5121925;27;20058;-62
2022/11/28 04:57:17;;;;;;;14.88;12.73;;;;;;;;;;5123612;27;20046;-63
2022/11/28 04:59:44;;;;;;;16.65;12.25;;;;;;;;;;5114763;27;20043;-63
2022/11/28 05:02:11;;;;;;;13.68;12.23;;;;;;;;;;5110104;27;20035;-63
2022/11/28 05:04:38;;;;;;;14.70;11.82;;;;;;;;;;5126660;27;20059;-62
2022/11/28 05:07:05;;;;;;;13.70;12.18;;;;;;;;;;5128784;27;20129;-62
2022/11/28 05:09:31;;;;;;;14.63;11.63;;;;;;;;;;5114387;27;20037;-62
2022/11/28 05:11:58;;;;;;;13.82;11.90;;;;;;;;;;5106575;27;20038;-62
2022/11/28 05:14:24;;;;;;;15.75;12.90;;;;;;;;;;5121288;27;20039;-63
2022/11/28 05:16:50;;;;;;;14.57;11.77;;;;;;;;;;5121778;27;20078;-63
2022/11/28 05:19:16;;;;;;;14.63;11.80;;;;;;;;;;5121170;27;20075;-62
2022/11/28 05:21:43;;;;;;;13.77;11.43;;;;;;;;;;5126122;27;20032;-62
2022/11/28 05:24:10;;;;;;;14.93;11.05;;;;;;;;;;5110992;27;20059;-62
2022/11/28 05:26:37;;;;;;;13.55;11.23;;;;;;;;;;5122156;27;20043;-62
2022/11/28 05:29:03;;;;;;;13.43;10.52;;;;;;;;;;5127951;27;20084;-63
2022/11/28 05:31:30;;;;;;;14.32;12.27;;;;;;;;;;5108998;27;20039;-63
2022/11/28 05:33:56;;;;;;;15.18;10.82;;;;;;;;;;5116575;27;20046;-62
2022/11/28 05:36:23;;;;;;;14.00;11.18;;;;;;;;;;5117515;27;20091;-62
2022/11/28 05:38:49;;;;;;;17.33;11.50;;;;;;;;;;5091727;28;20045;-63
2022/11/28 05:41:26;;;;;;;13.35;10.55;;;;;;;;;;5122462;27;20127;-62
2022/11/28 05:43:53;;;;;;;13.55;10.40;;;;;;;;;;5127722;27;20042;-63
2022/11/28 05:46:19;;;;;;;13.07;10.15;;;;;;;;;;5119193;27;20040;-62
2022/11/28 05:48:45;;;;;;;13.00;10.82;;;;;;;;;;5121213;27;20027;-63
2022/11/28 05:51:12;;;;;;;15.10;10.70;;;;;;;;;;5125105;27;20507;-63
2022/11/28 05:53:38;;;;;;;14.52;12.15;;;;;;;;;;5124557;27;20031;-62
2022/11/28 05:56:18;;;;;;;14.40;10.32;;;;;;;;;;5107958;27;20573;-62
2022/11/28 05:58:44;;;;;;;13.15;10.15;;;;;;;;;;5122038;27;20389;-62
2022/11/28 06:01:13;;;;;;;14.15;10.35;;;;;;;;;;5114759;27;20034;-63
2022/11/28 06:03:39;;;;;;;12.63;10.70;;;;;;;;;;5121229;27;20381;-62
2022/11/28 06:06:10;;;;;;;12.23;9.35;;;;;;;;;;5124596;27;20484;-62
2022/11/28 06:08:36;;;;;;;10.73;8.85;;;;;;;;;;5123799;27;20122;-62
2022/11/28 06:11:02;;;;;;;11.50;9.75;;;;;;;;;;5122648;27;20031;-62
2022/11/28 06:13:29;;;;;;;12.85;9.52;;;;;;;;;;5126968;27;20182;-62
2022/11/28 06:15:55;;;;;;;11.77;8.75;;;;;;;;;;5119908;27;20063;-63
2022/11/28 06:18:24;;;;;;;10.35;8.25;;;;;;;;;;5123882;27;20031;-62
2022/11/28 06:20:50;;;;;;;11.70;8.45;;;;;;;;;;5121768;27;20050;-63
2022/11/28 06:23:17;;;;;;;10.60;9.35;;;;;;;;;;5117511;27;20028;-63
2022/11/28 06:25:43;;;;;;;10.20;8.75;;;;;;;;;;5115172;27;20295;-63
2022/11/28 06:28:09;;;;;;;11.82;9.88;;;;;;;;;;5112358;27;20176;-64
2022/11/28 06:30:35;;;;;;;10.18;8.57;;;;;;;;;;5114307;27;20031;-62
2022/11/28 06:33:02;;;;;;;11.52;9.13;;;;;;;;;;5115872;27;20035;-63
2022/11/28 06:35:28;;;;;;;10.70;9.23;;;;;;;;;;5115660;28;20415;-63
2022/11/28 06:37:54;;;;;;;9.75;8.55;;;;;;;;;;5118015;28;20035;-62
2022/11/28 06:40:20;;;;;;;11.43;8.30;;;;;;;;;;5114075;28;20055;-63
2022/11/28 06:42:49;;;;;;;9.48;7.65;;;;;;;;;;5123830;28;20042;-62
2022/11/28 06:45:15;;;;;;;11.65;8.35;;;;;;;;;;5101804;28;20055;-62
2022/11/28 06:47:42;;;;;;;9.07;8.10;;;;;;;;;;5115076;28;20038;-62
2022/11/28 06:50:09;;;;;;;10.15;8.00;;;;;;;;;;5122730;28;20034;-63
2022/11/28 06:52:35;;;;;;;10.38;8.35;;;;;;;;;;5106071;28;20059;-62
2022/11/28 06:55:01;;;;;;;9.60;7.93;;;;;;;;;;5113344;28;20043;-62
2022/11/28 06:57:28;;;;;;;11.20;8.88;;;;;;;;;;5111556;28;20046;-63
2022/11/28 06:59:54;;;;;;;11.27;9.05;;;;;;;;;;5108991;28;20408;-63
2022/11/28 07:02:23;;;;;;;11.48;8.98;;;;;;;;;;5125105;28;20045;-63
2022/11/28 07:04:49;;;;;;;11.15;9.18;;;;;;;;;;5109247;28;20107;-62
2022/11/28 07:07:15;;;;;;;11.02;9.13;;;;;;;;;;5123475;28;20050;-62
2022/11/28 07:09:42;;;;;;;11.88;9.18;;;;;;;;;;5107516;28;20033;-63
2022/11/28 07:12:08;;;;;;;12.48;8.77;;;;;;;;;;5107103;28;20071;-63
2022/11/28 07:14:35;;;;;;;12.77;9.50;;;;;;;;;;5114945;28;20096;-62
2022/11/28 07:17:01;;;;;;;10.20;8.93;;;;;;;;;;5094186;28;20427;-62
2022/11/28 07:19:28;;;;;;;11.63;8.65;;;;;;;;;;5094118;28;20451;-63
2022/11/28 07:21:55;;;;;;;12.35;9.45;;;;;;;;;;5112059;28;20039;-62
2022/11/28 07:24:22;;;;;;;13.07;9.30;;;;;;;;;;5109244;28;20047;-62
2022/11/28 07:26:49;;;;;;;10.85;9.00;;;;;;;;;;5094136;28;20127;-63
2022/11/28 07:29:16;;;;;;;12.07;8.55;;;;;;;;;;5115140;28;20553;-62
2022/11/28 07:31:43;;;;;;;13.32;8.95;;;;;;;;;;5111383;28;20149;-62
2022/11/28 07:34:10;;;;;;;12.80;9.25;;;;;;;;;;5117346;28;20066;-62
2022/11/28 07:36:37;;;;;;;12.70;9.30;;;;;;;;;;5116440;28;20130;-62
2022/11/28 07:39:04;;;;;;;11.40;9.23;;;;;;;;;;5094936;28;20065;-63
2022/11/28 07:41:31;;;;;;;12.57;9.07;;;;;;;;;;5117334;27;20092;-63
2022/11/28 07:43:58;;;;;;;10.70;8.25;;;;;;;;;;5079610;28;20044;-62
2022/11/28 07:46:26;;;;;;;12.07;8.30;;;;;;;;;;5116603;27;20115;-62
2022/11/28 07:48:53;;;;;;;10.50;8.35;;;;;;;;;;5124756;27;20080;-62
2022/11/28 07:51:22;;;;;;;13.30;9.57;;;;;;;;;;5116655;27;20413;-62
2022/11/28 07:53:48;;;;;;;12.88;10.05;;;;;;;;;;5097361;27;20083;-63
2022/11/28 07:56:19;;;;;;;13.57;8.88;;;;;;;;;;5096813;27;20461;-63
2022/11/28 07:58:46;;;;;;;13.82;9.02;;;;;;;;;;5114368;27;20069;-62
2022/11/28 08:01:15;;;;;;;9.93;8.82;;;;;;;;;;5113973;27;20042;-62
2022/11/28 08:03:41;;;;;;;13.57;8.90;;;;;;;;;;5080372;27;20096;-63
2022/11/28 08:06:07;;;;;;;10.90;8.60;;;;;;;;;;5113832;27;20397;-62
2022/11/28 08:08:34;;;;;;;10.82;8.57;;;;;;;;;;5108653;27;20187;-63
2022/11/28 08:11:02;;;;;;;11.20;8.63;;;;;;;;;;5106792;27;20057;-62
2022/11/28 08:13:29;;;;;;;14.18;9.32;;;;;;;;;;5113407;27;20043;-62
2022/11/28 08:15:55;;;;;;;9.65;8.40;;;;;;;;;;5116290;27;20080;-62
2022/11/28 08:18:22;;;;;;;10.43;8.05;;;;;;;;;;5099841;27;20282;-62
2022/11/28 08:20:48;;;;;;;11.38;8.55;;;;;;;;;;5122087;27;20507;-63
2022/11/28 08:23:15;;;;;;;10.25;8.00;;;;;;;;;;5111355;27;20438;-62
2022/11/28 08:25:41;;;;;;;13.75;9.02;;;;;;;;;;5115255;27;20093;-62
2022/11/28 08:28:07;;;;;;;11.15;8.45;;;;;;;;;;5127641;27;20043;-63
2022/11/28 08:30:33;;;;;;;10.25;7.72;;;;;;;;;;5118671;27;20027;-62
2022/11/28 08:33:00;;;;;;;11.77;7.82;;;;;;;;;;5098180;28;20118;-62
2022/11/28 08:35:26;;;;;;;10.23;7.90;;;;;;;;;;5128972;27;20066;-62
2022/11/28 08:37:53;;;;;;;10.57;7.85;;;;;;;;;;5103215;27;20523;-63
2022/11/28 08:40:19;;;;;;;12.13;8.30;;;;;;;;;;5129746;27;20050;-63
2022/11/28 08:42:45;;;;;;;11.70;8.18;;;;;;;;;;5112431;27;20043;-63
2022/11/28 08:45:12;;;;;;;10.38;7.68;;;;;;;;;;5121433;27;20586;-63
2022/11/28 08:47:38;;;;;;;10.82;8.25;;;;;;;;;;5116615;27;20043;-63
2022/11/28 08:50:04;;;;;;;11.90;8.93;;;;;;;;;;5129341;27;20031;-62
2022/11/28 08:52:32;;;;;;;15.50;10.40;;;;;;;;;;5099813;28;20039;-63
2022/11/28 08:54:59;;;;;;;14.05;10.85;;;;;;;;;;5126322;27;20024;-62
2022/11/28 08:57:25;;;;;;;16.98;11.18;;;;;;;;;;5125313;27;20050;-63
2022/11/28 08:59:51;;;;;;;19.30;12.57;;;;;;;;;;5109215;27;20069;-62
2022/11/28 09:02:18;;;;;;;18.45;12.00;;;;;;;;;;5118725;27;20043;-62
2022/11/28 09:04:44;;;;;;;17.75;12.88;;;;;;;;;;5123665;27;20070;-62
2022/11/28 09:07:11;;;;;;;16.15;12.95;;;;;;;;;;5118060;27;20040;-62
2022/11/28 09:09:37;;;;;;;18.35;12.35;;;;;;;;;;5103796;27;20092;-63
2022/11/28 09:12:03;;;;;;;20.08;14.52;;;;;;;;;;5122209;27;20500;-62
2022/11/28 09:14:29;;;;;;;26.23;16.85;;;;;;;;;;5115910;27;20060;-62
2022/11/28 09:16:55;;;;;;;21.75;15.48;;;;;;;;;;5104027;27;20049;-62
2022/11/28 09:19:22;;;;;;;27.50;17.50;;;;;;;;;;5117114;27;20035;-63
2022/11/28 09:21:48;;;;;;;26.52;17.30;;;;;;;;;;5115885;27;20264;-62
2022/11/28 09:24:14;;;;;;;26.88;17.58;;;;;;;;;;5121562;27;20114;-62
2022/11/28 09:26:42;;;;;;;23.38;15.75;;;;;;;;;;5120568;27;21366;-62
2022/11/28 09:29:08;;;;;;;28.38;18.27;;;;;;;;;;5116894;27;20467;-62
2022/11/28 09:31:34;;;;;;;29.50;18.05;;;;;;;;;;5107682;27;20436;-62
2022/11/28 09:34:02;;;;;;;27.17;18.55;;;;;;;;;;5105251;28;20077;-63
2022/11/28 09:36:29;;;;;;;26.88;18.60;;;;;;;;;;5117848;27;20313;-63
2022/11/28 09:38:55;;;;;;;29.00;19.60;;;;;;;;;;5105188;27;20036;-62
2022/11/28 09:41:27;;;;;;;33.15;21.98;;;;;;;;;;5122690;27;20436;-62
2022/11/28 09:43:56;;;;;;;33.88;20.55;;;;;;;;;;5119446;27;20043;-62
2022/11/28 09:46:26;;;;;;;31.95;20.10;;;;;;;;;;5116654;27;20444;-62
2022/11/28 09:48:55;;;;;;;29.33;19.30;;;;;;;;;;5117330;27;20039;-63
2022/11/28 09:51:27;;;;;;;29.65;20.75;;;;;;;;;;5129395;27;20439;-63
2022/11/28 09:54:19;;;;;;;32.63;20.23;;;;;;;;;;5126028;27;20039;-62
2022/11/28 09:56:47;;;;;;;29.85;20.00;;;;;;;;;;5099594;27;20051;-62
2022/11/28 09:59:23;;;;;;;33.17;20.17;;;;;;;;;;5114678;27;20051;-62
2022/11/28 10:01:52;;;;;;;39.35;22.70;;;;;;;;;;5093725;28;20043;-63
2022/11/28 10:04:33;;;;;;;34.33;21.58;;;;;;;;;;5100324;27;20035;-62
2022/11/28 10:07:15;;;;;;;32.45;20.13;;;;;;;;;;5100870;27;20046;-63
2022/11/28 10:09:45;;;;;;;31.00;20.92;;;;;;;;;;5108520;27;20035;-62
2022/11/28 10:12:11;;;;;;;32.83;22.33;;;;;;;;;;5115746;27;20041;-62
2022/11/28 10:14:44;;;;;;;28.73;20.02;;;;;;;;;;5119025;27;20170;-63
2022/11/28 10:17:20;;;;;;;29.17;21.98;;;;;;;;;;5093737;28;20043;-62
2022/11/28 10:20:02;;;;;;;29.60;20.77;;;;;;;;;;5114525;27;20062;-63
2022/11/28 10:22:36;;;;;;;29.30;19.10;;;;;;;;;;5117600;27;20269;-62
2022/11/28 10:25:06;;;;;;;30.48;20.02;;;;;;;;;;5116906;27;20062;-62
2022/11/28 10:27:34;;;;;;;31.00;20.33;;;;;;;;;;5118952;27;20055;-62
2022/11/28 10:30:06;;;;;;;31.80;20.33;;;;;;;;;;5125425;27;20544;-63
2022/11/28 10:32:36;;;;;;;34.87;22.43;;;;;;;;;;5120127;27;20550;-62
2022/11/28 10:35:06;;;;;;;33.67;20.92;;;;;;;;;;5114657;27;20027;-63
2022/11/28 10:37:35;;;;;;;31.30;19.25;;;;;;;;;;5111816;27;20043;-63
2022/11/28 10:40:20;;;;;;;36.70;20.17;;;;;;;;;;5123269;27;20047;-63
2022/11/28 10:42:46;;;;;;;29.83;18.77;;;;;;;;;;5120300;28;20082;-65
2022/11/28 10:45:26;;;;;;;26.88;19.80;;;;;;;;;;5117893;28;20087;-63
2022/11/28 10:47:58;;;;;;;27.48;19.67;;;;;;;;;;5120975;28;20152;-63
2022/11/28 10:50:36;;;;;;;26.55;19.05;;;;;;;;;;5115859;28;20058;-63
2022/11/28 10:53:23;;;;;;;31.75;20.40;;;;;;;;;;5112519;28;20055;-63
2022/11/28 10:56:09;;;;;;;23.52;16.77;;;;;;;;;;5103275;28;20038;-62
2022/11/28 10:58:42;;;;;;;25.52;17.85;;;;;;;;;;5110472;28;20390;-63
2022/11/28 11:01:08;;;;;;;24.45;17.75;;;;;;;;;;5112433;28;20039;-63
2022/11/28 11:03:36;;;;;;;27.83;17.92;;;8.10;99.90;;;;;;5110291;28;20144;-63
2022/11/28 11:06:03;;;;;;;28.02;16.92;;;8.60;99.90;;;;;;5117533;28;20518;-63
2022/11/28 11:08:34;;;;;;;25.80;17.50;;;8.60;99.90;;;;;;5114080;28;20031;-64
2022/11/28 11:11:26;;;;;;;32.83;18.17;;;8.60;99.90;;;;;;5114643;28;20118;-64
2022/11/28 11:14:05;;;;;;;23.17;16.77;;;8.60;99.90;;;;;;5101165;28;20082;-65
2022/11/28 11:16:50;;;;;;;21.88;16.17;;;8.60;99.90;;;;;;5095486;27;20374;-63
2022/11/28 11:19:37;;;;;;;24.15;16.00;;;8.60;99.90;;;;;;5124158;27;20109;-63
2022/11/28 11:22:20;;;;;;;19.33;14.73;;;8.60;99.90;;;;;;5106644;27;20409;-62
2022/11/28 11:25:14;;;;;;;21.75;15.77;;;8.60;99.90;;;;;;5119386;27;20055;-63
2022/11/28 11:27:50;;;;;;;25.83;15.40;;;8.60;99.90;;;;;;5107477;27;20055;-63
2022/11/28 11:30:27;;;;;;;23.05;15.05;;;8.60;99.90;;;;;;5119320;27;20035;-63
2022/11/28 11:32:55;;;;;;;28.05;17.42;;;8.70;99.90;;;;;;5109062;27;20039;-63
2022/11/28 11:35:28;;;;;;;36.72;16.40;;;8.70;99.90;;;;;;5112676;27;20046;-63
2022/11/28 11:38:20;;;;;;;30.17;18.92;;;8.60;99.90;;;;;;5112250;27;20131;-63
2022/11/28 11:40:47;;;;;;;24.45;18.08;;;8.70;99.90;;;;;;5114271;27;22202;-63
2022/11/28 11:43:29;;;;;;;25.95;17.80;;;8.70;99.90;;;;;;5114541;27;20035;-63
2022/11/28 11:46:24;;;;;;;26.80;17.08;;;8.70;99.90;;;;;;5112161;27;20065;-63
2022/11/28 11:48:52;;;;;;;21.83;16.90;;;8.70;99.90;;;;;;5097868;27;20501;-63
2022/11/28 11:51:28;;;;;;;27.83;18.65;;;8.70;99.90;;;;;;5111851;27;20155;-62
2022/11/28 11:54:16;;;;;;;23.42;17.73;;;8.70;99.90;;;;;;5115125;27;20637;-63
2022/11/28 11:56:45;;;;;;;21.80;16.23;;;8.70;99.90;;;;;;5111206;27;20043;-63
2022/11/28 11:59:20;;;;;;;23.25;17.30;;;8.70;99.90;;;;;;5080184;27;20039;-63
2022/11/28 12:01:52;;;;;;;25.83;17.17;;;8.70;99.90;;;;;;5101559;28;20040;-63
2022/11/28 12:04:41;;;;;;;24.98;16.38;;;8.70;99.90;;;;;;5112164;27;20036;-63
2022/11/28 12:07:20;;;;;;;21.70;15.77;;;8.70;99.90;;;;;;5112713;27;20073;-63
2022/11/28 12:09:48;;;;;;;26.17;17.30;;;8.70;99.90;;;;;;5112677;27;20065;-63
2022/11/28 12:12:28;;;;;;;34.78;17.67;;;8.70;99.90;;;;;;5119919;27;20034;-63
2022/11/28 12:14:55;;;;;;;24.98;15.50;;;8.70;99.90;;;;;;5121150;27;20043;-63
2022/11/28 12:17:39;;;;;;;23.35;15.98;;;8.70;99.90;;;;;;5125458;27;20492;-63
2022/11/28 12:20:19;;;;;;;24.15;16.85;;;8.70;99.90;;;;;;5124985;27;20458;-63
2022/11/28 12:22:55;;;;;;;25.60;17.67;;;8.70;99.90;;;;;;5101920;27;20043;-63
2022/11/28 12:26:01;;;;;;;25.02;16.52;;;8.70;99.90;;;;;;5092316;28;20044;-63
2022/11/28 12:28:50;;;;;;;24.08;15.95;;;8.70;99.90;;;;;;5093157;28;20051;-63
2022/11/28 12:31:50;;;;;;;26.25;17.13;;;8.70;99.90;;;;;;5098816;28;20060;-63
2022/11/28 12:34:31;;;;;;;38.10;18.75;;;8.70;99.90;;;;;;5099360;28;20039;-63
2022/11/28 12:37:44;;;;;;;42.83;21.50;;;8.70;99.90;;;;;;5096894;28;20405;-63
2022/11/28 12:40:45;;;;;;;29.50;18.50;;;8.70;99.90;;;;;;5069243;28;20048;-63
2022/11/28 12:43:24;;;;;;;33.08;20.73;;;8.70;99.90;;;;;;5056025;28;20100;-63
2022/11/28 12:46:00;;;;;;;32.45;20.13;;;8.80;99.90;;;;;;5096295;28;20496;-63
2022/11/28 12:48:26;;;;;;;32.53;19.88;;;8.80;99.90;;;;;;5103740;28;20450;-63
2022/11/28 12:51:18;;;;;;;31.42;20.63;;;8.80;99.90;;;;;;5101115;28;20043;-62
2022/11/28 12:54:11;;;;;;;30.45;20.23;;;8.70;99.90;;;;;;5106139;28;20536;-63
2022/11/28 12:56:49;;;;;;;29.17;20.60;;;8.80;99.90;;;;;;5100587;28;20536;-63
2022/11/28 12:59:49;;;;;;;33.47;22.30;;;8.80;99.90;;;;;;5100437;28;20322;-63
2022/11/28 13:02:43;;;;;;;42.75;23.60;;;8.80;99.90;;;;;;5073376;28;20412;-63
2022/11/28 13:05:38;;;;;;;38.75;24.05;;;8.80;99.90;;;;;;5097207;28;20047;-63
2022/11/28 13:08:37;;;;;;;39.75;24.05;;;8.80;99.90;;;;;;5092952;28;20600;-63
2022/11/28 13:11:21;;;;;;;37.92;23.92;;;8.80;99.90;;;;;;5103202;28;20564;-63
2022/11/28 13:14:12;;;;;;;47.03;23.67;;;8.80;99.90;;;;;;5095988;28;20633;-63
2022/11/28 13:16:44;;;;;;;41.90;23.95;;;8.80;99.90;;;;;;5091967;28;20218;-63
2022/11/28 13:19:25;;;;;;;41.83;23.40;;;8.80;99.90;;;;;;5100243;28;20055;-63
2022/11/28 13:22:03;;;;;;;38.08;22.67;;;8.80;99.90;;;;;;5104260;28;20123;-63
2022/11/28 13:25:08;;;;;;;41.20;24.02;;;8.80;99.90;;;;;;5108877;27;20039;-63
2022/11/28 13:27:52;;;;;;;36.95;20.95;;;8.80;99.90;;;;;;5122872;27;20043;-63
2022/11/28 13:30:27;;;;;;;41.85;22.80;;;8.80;99.90;;;;;;5109141;27;20043;-63
2022/11/28 13:33:21;;;;;;;41.83;23.40;;;8.80;99.90;;;;;;5126201;27;20049;-63
2022/11/28 13:35:47;;;;;;;40.95;24.45;;;8.80;99.90;;;;;;5121325;27;20493;-63
2022/11/28 13:38:28;;;;;;;49.47;24.98;;;8.80;99.90;;;;;;5117894;27;20511;-63
2022/11/28 13:41:10;;;;;;;45.33;25.52;;;8.70;99.90;;;;;;5125524;27;20488;-63
2022/11/28 13:43:58;;;;;;;48.00;25.05;;;8.80;99.90;;;;;;5122507;27;20043;-63
2022/11/28 13:46:24;;;;;;;44.78;25.80;;;8.70;99.90;;;;;;5120253;27;20118;-63
2022/11/28 13:48:56;;;;;;;47.95;25.67;;;8.70;99.90;;;;;;5121030;27;20289;-63
2022/11/28 13:51:24;;;;;;;45.95;25.42;;;8.80;99.90;;;;;;5102662;28;20039;-63
2022/11/28 13:54:16;;;;;;;45.33;25.50;;;8.70;99.90;;;;;;5100182;27;20494;-63
2022/11/28 13:57:01;;;;;;;56.70;26.85;;;8.70;99.90;;;;;;5108755;27;20043;-63
2022/11/28 13:59:28;;;;;;;47.03;27.13;;;8.80;99.90;;;;;;5116096;27;20027;-63
2022/11/28 14:02:00;;;;;;;76.07;32.63;;;8.80;99.90;;;;;;5107666;27;20051;-63
2022/11/28 14:04:28;;;;;;;59.58;28.58;;;8.80;99.90;;;;;;5119964;27;20039;-63
2022/11/28 14:07:06;;;;;;;54.47;26.20;;;8.70;99.90;;;;;;5127115;27;20043;-63
2022/11/28 14:09:53;;;;;;;48.47;26.48;;;8.80;99.90;;;;;;5122241;27;20039;-63
2022/11/28 14:12:29;;;;;;;66.53;28.80;;;8.80;99.90;;;;;;5120431;27;20043;-63
2022/11/28 14:15:20;;;;;;;61.15;27.90;;;8.80;99.90;;;;;;5122251;27;20248;-63
2022/11/28 14:18:03;;;;;;;55.03;28.05;;;8.80;99.90;;;;;;5121446;27;20434;-63
2022/11/28 14:21:01;;;;;;;61.30;29.80;;;8.80;99.90;;;;;;5127748;27;20031;-63
2022/11/28 14:24:12;;;;;;;65.65;30.67;;;8.80;99.90;;;;;;5125945;27;20400;-63